createdAt,value
2022-09-22T00:00:14.007Z,6.52
2022-09-22T00:03:05.895Z,6.49
2022-09-22T00:05:37.916Z,6.46
2022-09-22T00:08:09.706Z,6.43
2022-09-22T00:10:41.463Z,6.40
2022-09-22T00:13:13.256Z,6.37
2022-09-22T00:15:49.490Z,6.33
2022-09-22T00:18:21.273Z,6.30
2022-09-22T00:20:53.076Z,6.27
2022-09-22T00:23:29.157Z,6.23
2022-09-22T00:26:04.969Z,6.22
2022-09-22T00:28:38.217Z,6.21
2022-09-22T00:31:12.601Z,6.20
2022-09-22T00:33:45.079Z,6.20
2022-09-22T00:36:18.597Z,6.19
2022-09-22T00:38:51.688Z,6.18
2022-09-22T00:41:26.322Z,6.16
2022-09-22T00:44:34.098Z,6.15
2022-09-22T00:47:15.553Z,6.14
2022-09-22T00:49:52.229Z,6.15
2022-09-22T00:52:27.125Z,6.14
2022-09-22T00:55:04.649Z,6.13
2022-09-22T00:57:39.582Z,6.12
2022-09-22T01:00:13.725Z,6.14
2022-09-22T01:02:49.851Z,6.16
2022-09-22T01:05:23.810Z,6.17
2022-09-22T01:07:56.101Z,6.19
2022-09-22T01:10:28.250Z,6.22
2022-09-22T01:13:08.955Z,6.25
2022-09-22T01:15:48.940Z,6.28
2022-09-22T01:18:29.067Z,6.30
2022-09-22T01:21:20.893Z,6.33
2022-09-22T01:24:34.468Z,6.36
2022-09-22T01:27:35.421Z,6.39
2022-09-22T01:30:31.134Z,6.42
2022-09-22T01:33:18.825Z,6.43
2022-09-22T01:36:04.206Z,6.43
2022-09-22T01:38:46.102Z,6.43
2022-09-22T01:41:23.502Z,6.44
2022-09-22T01:44:01.130Z,6.44
2022-09-22T01:46:37.732Z,6.46
2022-09-22T01:49:14.779Z,6.48
2022-09-22T01:51:50.029Z,6.48
2022-09-22T01:54:28.346Z,6.48
2022-09-22T01:57:06.344Z,6.49
2022-09-22T01:59:41.008Z,6.46
2022-09-22T02:02:20.795Z,6.45
2022-09-22T02:04:58.144Z,6.43
2022-09-22T02:07:35.855Z,6.40
2022-09-22T02:10:13.921Z,6.38
2022-09-22T02:12:47.624Z,6.38
2022-09-22T02:15:37.732Z,6.36
2022-09-22T02:18:13.964Z,6.34
2022-09-22T02:20:46.280Z,6.32
2022-09-22T02:23:18.053Z,6.30
2022-09-22T02:25:50.689Z,6.29
2022-09-22T02:28:26.787Z,6.28
2022-09-22T02:31:19.025Z,6.27
2022-09-22T02:33:53.498Z,6.24
2022-09-22T02:36:39.214Z,6.23
2022-09-22T02:39:14.964Z,6.21
2022-09-22T02:42:03.766Z,6.19
2022-09-22T02:44:45.346Z,6.18
2022-09-22T02:47:23.487Z,6.16
2022-09-22T02:49:56.864Z,6.13
2022-09-22T02:52:28.811Z,6.12
2022-09-22T02:55:01.045Z,6.12
2022-09-22T02:57:33.184Z,6.11
2022-09-22T03:00:07.031Z,6.10
2022-09-22T03:02:39.673Z,6.09
2022-09-22T03:05:12.149Z,6.09
2022-09-22T03:07:44.015Z,6.08
2022-09-22T03:10:16.168Z,6.08
2022-09-22T03:13:14.500Z,6.07
2022-09-22T03:15:39.804Z,6.07
2022-09-22T03:18:11.626Z,6.06
2022-09-22T03:20:44.561Z,6.06
2022-09-22T03:23:22.971Z,6.06
2022-09-22T03:25:57.555Z,6.05
2022-09-22T03:28:29.993Z,6.07
2022-09-22T03:31:01.794Z,6.07
2022-09-22T03:33:33.889Z,6.09
2022-09-22T03:36:06.864Z,6.11
2022-09-22T03:38:38.912Z,6.13
2022-09-22T03:41:10.655Z,6.15
2022-09-22T03:43:42.411Z,6.18
2022-09-22T03:46:15.129Z,6.19
2022-09-22T03:48:47.083Z,6.22
2022-09-22T03:51:19.496Z,6.23
2022-09-22T03:53:51.263Z,6.23
2022-09-22T03:56:23.296Z,6.26
2022-09-22T03:58:55.139Z,6.27
2022-09-22T04:01:27.146Z,6.28
2022-09-22T04:03:59.034Z,6.31
2022-09-22T04:06:30.925Z,6.34
2022-09-22T04:09:02.769Z,6.36
2022-09-22T04:11:36.087Z,6.38
2022-09-22T04:14:08.050Z,6.38
2022-09-22T04:16:43.164Z,6.39
2022-09-22T04:19:15.704Z,6.41
2022-09-22T04:21:47.833Z,6.45
2022-09-22T04:24:20.385Z,6.48
2022-09-22T04:27:18.161Z,6.49
2022-09-22T04:29:44.823Z,6.52
2022-09-22T04:32:16.809Z,6.54
2022-09-22T04:34:48.945Z,6.53
2022-09-22T04:37:20.755Z,6.54
2022-09-22T04:39:54.379Z,6.56
2022-09-22T04:42:26.172Z,6.54
2022-09-22T04:45:02.144Z,6.51
2022-09-22T04:47:34.886Z,6.50
2022-09-22T04:50:07.613Z,6.53
2022-09-22T04:52:39.549Z,6.56
2022-09-22T04:55:12.987Z,6.57
2022-09-22T04:57:48.054Z,6.55
2022-09-22T05:00:21.558Z,6.53
2022-09-22T05:02:53.818Z,6.51
2022-09-22T05:05:25.678Z,6.52
2022-09-22T05:07:57.708Z,6.51
2022-09-22T05:10:32.351Z,6.49
2022-09-22T05:13:04.631Z,6.48
2022-09-22T05:15:37.599Z,6.47
2022-09-22T05:18:10.179Z,6.47
2022-09-22T05:20:41.969Z,6.47
2022-09-22T05:23:14.118Z,6.47
2022-09-22T05:25:45.927Z,6.45
2022-09-22T05:28:17.763Z,6.46
2022-09-22T05:30:52.523Z,6.45
2022-09-22T05:33:24.342Z,6.46
2022-09-22T05:35:56.286Z,6.49
2022-09-22T05:38:28.991Z,6.53
2022-09-22T05:41:01.481Z,6.57
2022-09-22T05:43:33.357Z,6.61
2022-09-22T05:46:05.300Z,6.66
2022-09-22T05:48:37.439Z,6.70
2022-09-22T05:51:09.325Z,6.74
2022-09-22T05:53:41.123Z,6.77
2022-09-22T05:56:12.929Z,6.78
2022-09-22T05:58:45.164Z,6.82
2022-09-22T06:01:17.302Z,6.87
2022-09-22T06:03:49.247Z,6.90
2022-09-22T06:06:21.144Z,6.93
2022-09-22T06:08:52.981Z,7.00
2022-09-22T06:11:24.845Z,7.08
2022-09-22T06:13:56.792Z,7.15
2022-09-22T06:16:28.771Z,7.24
2022-09-22T06:19:00.668Z,7.32
2022-09-22T06:21:32.523Z,7.40
2022-09-22T06:24:05.027Z,7.53
2022-09-22T06:26:37.096Z,7.64
2022-09-22T06:29:10.771Z,7.72
2022-09-22T06:31:43.150Z,7.78
2022-09-22T06:34:15.157Z,7.85
2022-09-22T06:36:47.149Z,7.91
2022-09-22T06:39:19.040Z,7.97
2022-09-22T06:41:50.832Z,8.03
2022-09-22T06:44:22.692Z,8.09
2022-09-22T06:46:54.477Z,8.15
2022-09-22T06:49:26.892Z,8.23
2022-09-22T06:51:58.746Z,8.31
2022-09-22T06:54:31.052Z,8.40
2022-09-22T06:57:04.046Z,8.48
2022-09-22T06:59:39.232Z,8.57
2022-09-22T07:02:12.700Z,8.65
2022-09-22T07:04:45.567Z,8.73
2022-09-22T07:07:17.529Z,8.83
2022-09-22T07:09:53.639Z,8.94
2022-09-22T07:12:26.591Z,9.05
2022-09-22T07:14:58.876Z,9.16
2022-09-22T07:17:35.295Z,9.27
2022-09-22T07:20:09.178Z,9.39
2022-09-22T07:22:41.256Z,9.54
2022-09-22T07:25:13.320Z,9.67
2022-09-22T07:27:45.488Z,9.79
2022-09-22T07:30:17.974Z,9.92
2022-09-22T07:32:49.829Z,10.02
2022-09-22T07:35:21.935Z,10.11
2022-09-22T07:37:59.604Z,10.21
2022-09-22T07:40:32.629Z,10.31
2022-09-22T07:43:04.663Z,10.41
2022-09-22T07:45:37.672Z,10.54
2022-09-22T07:48:27.474Z,10.66
2022-09-22T07:51:00.333Z,10.79
2022-09-22T07:53:32.922Z,10.91
2022-09-22T07:56:12.551Z,11.00
2022-09-22T07:58:50.282Z,11.08
2022-09-22T08:01:24.683Z,11.18
2022-09-22T08:03:59.080Z,11.27
2022-09-22T08:06:31.804Z,11.34
2022-09-22T08:09:07.132Z,11.39
2022-09-22T08:11:39.581Z,11.44
2022-09-22T08:14:14.891Z,11.51
2022-09-22T08:16:47.208Z,11.57
2022-09-22T08:19:21.241Z,11.63
2022-09-22T08:21:55.021Z,11.66
2022-09-22T08:24:26.894Z,11.68
2022-09-22T08:26:58.843Z,11.72
2022-09-22T08:29:31.626Z,11.72
2022-09-22T08:32:04.063Z,11.74
2022-09-22T08:34:36.061Z,11.77
2022-09-22T08:37:09.684Z,11.82
2022-09-22T08:39:43.891Z,11.90
2022-09-22T08:42:20.851Z,12.02
2022-09-22T08:45:00.975Z,12.16
2022-09-22T08:47:55.741Z,12.28
2022-09-22T08:50:52.762Z,12.39
2022-09-22T08:53:25.397Z,12.52
2022-09-22T08:56:07.683Z,12.59
2022-09-22T08:58:48.999Z,12.65
2022-09-22T09:01:52.536Z,12.74
2022-09-22T09:05:02.543Z,12.84
2022-09-22T09:07:43.329Z,12.95
2022-09-22T09:10:32.949Z,13.07
2022-09-22T09:13:23.024Z,13.21
2022-09-22T09:16:14.618Z,13.30
2022-09-22T09:18:54.354Z,13.34
2022-09-22T09:21:27.892Z,13.35
2022-09-22T09:27:03.930Z,13.34
2022-09-22T09:29:43.698Z,13.33
2022-09-22T09:32:28.275Z,13.32
2022-09-22T09:35:00.555Z,13.35
2022-09-22T09:37:33.517Z,13.37
2022-09-22T09:40:09.415Z,13.35
2022-09-22T09:42:41.258Z,13.39
2022-09-22T09:45:17.814Z,13.47
2022-09-22T09:48:04.956Z,13.56
2022-09-22T09:50:39.124Z,13.66
2022-09-22T09:53:26.050Z,13.71
2022-09-22T09:56:00.554Z,13.83
2022-09-22T09:58:50.545Z,13.90
2022-09-22T10:01:22.438Z,13.97
2022-09-22T10:03:54.952Z,14.00
2022-09-22T10:06:29.012Z,14.05
2022-09-22T10:09:00.918Z,14.02
2022-09-22T10:11:33.753Z,14.02
2022-09-22T10:14:05.625Z,14.03
2022-09-22T10:16:37.748Z,14.02
2022-09-22T10:19:27.533Z,14.04
2022-09-22T10:22:25.241Z,14.05
2022-09-22T10:25:03.513Z,14.09
2022-09-22T10:27:35.996Z,14.11
2022-09-22T10:30:24.156Z,14.09
2022-09-22T10:33:19.460Z,14.06
2022-09-22T10:35:57.283Z,14.07
2022-09-22T10:38:33.501Z,14.08
2022-09-22T10:41:09.490Z,14.12
2022-09-22T10:43:48.533Z,14.10
2022-09-22T10:46:34.967Z,14.08
2022-09-22T10:49:17.123Z,14.08
2022-09-22T10:52:05.452Z,14.13
2022-09-22T10:55:04.603Z,14.18
2022-09-22T10:58:08.095Z,14.25
2022-09-22T11:00:42.537Z,14.30
2022-09-22T11:03:40.828Z,14.31
2022-09-22T11:06:54.851Z,14.32
2022-09-22T11:09:56.021Z,14.26
2022-09-22T11:12:43.632Z,14.31
2022-09-22T11:15:34.810Z,14.39
2022-09-22T11:18:22.546Z,14.54
2022-09-22T11:21:04.442Z,14.66
2022-09-22T11:23:57.233Z,14.72
2022-09-22T11:26:50.097Z,14.74
2022-09-22T11:29:47.040Z,14.78
2022-09-22T11:32:34.353Z,14.84
2022-09-22T11:35:23.732Z,14.84
2022-09-22T11:38:10.539Z,14.88
2022-09-22T11:43:50.160Z,14.90
2022-09-22T11:46:31.136Z,14.90
2022-09-22T11:49:19.263Z,14.88
2022-09-22T11:52:17.131Z,14.93
2022-09-22T11:55:05.354Z,14.97
2022-09-22T11:57:42.478Z,14.96
2022-09-22T12:00:19.009Z,14.93
2022-09-22T12:03:01.834Z,14.92
2022-09-22T12:05:41.746Z,14.93
2022-09-22T12:08:17.292Z,14.94
2022-09-22T12:10:50.316Z,14.94
2022-09-22T12:13:26.544Z,14.93
2022-09-22T12:16:08.415Z,14.99
2022-09-22T12:18:46.938Z,14.99
2022-09-22T12:21:32.881Z,14.94
2022-09-22T12:24:11.307Z,14.98
2022-09-22T12:26:46.420Z,15.02
2022-09-22T12:29:28.279Z,14.99
2022-09-22T12:32:01.023Z,14.97
2022-09-22T12:34:36.191Z,14.93
2022-09-22T12:37:15.479Z,14.92
2022-09-22T12:39:49.488Z,14.89
2022-09-22T12:42:29.570Z,14.90
2022-09-22T12:45:07.968Z,14.94
2022-09-22T12:47:43.313Z,14.97
2022-09-22T12:50:38.800Z,15.03
2022-09-22T12:53:25.125Z,15.03
2022-09-22T12:55:58.107Z,15.00
2022-09-22T12:58:45.730Z,15.00
2022-09-22T13:02:19.044Z,14.94
2022-09-22T13:05:22.286Z,14.91
2022-09-22T13:08:05.597Z,14.91
2022-09-22T13:10:55.754Z,14.90
2022-09-22T13:13:37.657Z,14.90
2022-09-22T13:16:37.965Z,14.86
2022-09-22T13:19:14.903Z,14.83
2022-09-22T13:21:50.225Z,14.79
2022-09-22T13:24:28.637Z,14.78
2022-09-22T13:27:08.572Z,14.74
2022-09-22T13:29:40.518Z,14.70
2022-09-22T13:32:26.946Z,14.66
2022-09-22T13:34:59.280Z,14.64
2022-09-22T13:37:32.436Z,14.63
2022-09-22T13:40:12.364Z,14.57
2022-09-22T13:42:47.347Z,14.58
2022-09-22T13:45:24.323Z,14.61
2022-09-22T13:48:06.133Z,14.60
2022-09-22T13:50:50.074Z,14.56
2022-09-22T13:53:23.523Z,14.57
2022-09-22T13:55:57.850Z,14.54
2022-09-22T13:58:36.209Z,14.50
2022-09-22T14:01:16.646Z,14.45
2022-09-22T14:03:49.657Z,14.42
2022-09-22T14:06:24.222Z,14.40
2022-09-22T14:08:57.473Z,14.37
2022-09-22T14:12:02.587Z,14.31
2022-09-22T14:15:32.690Z,14.25
2022-09-22T14:18:18.451Z,14.24
2022-09-22T14:20:53.047Z,14.28
2022-09-22T14:23:32.532Z,14.27
2022-09-22T14:26:18.226Z,14.29
2022-09-22T14:28:52.339Z,14.21
2022-09-22T14:31:30.121Z,14.14
2022-09-22T14:34:39.073Z,14.09
2022-09-22T14:38:17.132Z,14.07
2022-09-22T14:40:58.719Z,14.00
2022-09-22T14:43:37.139Z,13.97
2022-09-22T14:46:25.603Z,13.91
2022-09-22T14:48:57.672Z,13.87
2022-09-22T14:51:32.963Z,13.83
2022-09-22T14:54:13.915Z,13.78
2022-09-22T14:57:43.976Z,13.74
2022-09-22T15:00:36.410Z,13.74
2022-09-22T15:03:16.820Z,13.73
2022-09-22T15:06:06.402Z,13.72
2022-09-22T15:08:39.089Z,13.71
2022-09-22T15:11:11.609Z,13.68
2022-09-22T15:13:45.465Z,13.68
2022-09-22T15:16:40.983Z,13.68
2022-09-22T15:19:14.203Z,13.68
2022-09-22T15:21:49.453Z,13.67
2022-09-22T15:24:26.950Z,13.67
2022-09-22T15:27:00.057Z,13.61
2022-09-22T15:29:32.497Z,13.57
2022-09-22T15:32:06.811Z,13.57
2022-09-22T15:34:43.661Z,13.56
2022-09-22T15:37:24.321Z,13.56
2022-09-22T15:39:56.181Z,13.56
2022-09-22T15:42:28.278Z,13.55
2022-09-22T15:45:00.425Z,13.55
2022-09-22T15:47:33.822Z,13.54
2022-09-22T15:50:06.581Z,13.51
2022-09-22T15:52:45.208Z,13.44
2022-09-22T15:55:18.904Z,13.38
2022-09-22T15:57:54.891Z,13.34
2022-09-22T16:00:32.501Z,13.28
2022-09-22T16:03:07.156Z,13.24
2022-09-22T16:05:40.984Z,13.18
2022-09-22T16:08:17.971Z,13.11
2022-09-22T16:10:49.849Z,13.06
2022-09-22T16:13:21.860Z,13.02
2022-09-22T16:15:54.334Z,12.99
2022-09-22T16:18:26.881Z,12.93
2022-09-22T16:21:07.135Z,12.86
2022-09-22T16:23:39.193Z,12.77
2022-09-22T16:26:11.119Z,12.71
2022-09-22T16:28:42.965Z,12.65
2022-09-22T16:31:15.873Z,12.58
2022-09-22T16:33:51.237Z,12.51
2022-09-22T16:36:24.094Z,12.45
2022-09-22T16:38:56.558Z,12.38
2022-09-22T16:41:30.085Z,12.32
2022-09-22T16:44:03.271Z,12.27
2022-09-22T16:46:38.439Z,12.20
2022-09-22T16:49:14.075Z,12.13
2022-09-22T16:51:49.619Z,12.10
2022-09-22T16:54:25.094Z,12.02
2022-09-22T16:56:57.228Z,11.98
2022-09-22T16:59:30.614Z,11.95
2022-09-22T17:02:14.715Z,11.92
2022-09-22T17:04:46.766Z,11.89
2022-09-22T17:07:18.635Z,11.86
2022-09-22T17:09:50.524Z,11.82
2022-09-22T17:12:29.348Z,11.76
2022-09-22T17:15:01.282Z,11.70
2022-09-22T17:17:36.707Z,11.66
2022-09-22T17:20:10.187Z,11.61
2022-09-22T17:22:42.223Z,11.59
2022-09-22T17:25:14.237Z,11.56
2022-09-22T17:27:46.089Z,11.52
2022-09-22T17:30:18.061Z,11.49
2022-09-22T17:32:50.189Z,11.46
2022-09-22T17:35:22.270Z,11.44
2022-09-22T17:37:54.561Z,11.41
2022-09-22T17:40:26.530Z,11.39
2022-09-22T17:42:58.452Z,11.37
2022-09-22T17:45:31.589Z,11.34
2022-09-22T17:48:26.493Z,11.31
2022-09-22T17:51:15.988Z,11.27
2022-09-22T17:54:05.772Z,11.25
2022-09-22T17:56:59.059Z,11.20
2022-09-22T17:59:31.669Z,11.19
2022-09-22T18:02:05.234Z,11.18
2022-09-22T18:04:37.656Z,11.17
2022-09-22T18:07:16.057Z,11.16
2022-09-22T18:09:49.498Z,11.16
2022-09-22T18:12:25.040Z,11.18
2022-09-22T18:15:02.657Z,11.17
2022-09-22T18:17:41.940Z,11.17
2022-09-22T18:20:16.450Z,11.16
2022-09-22T18:22:50.315Z,11.14
2022-09-22T18:25:25.595Z,11.11
2022-09-22T18:27:58.294Z,11.09
2022-09-22T18:30:31.228Z,11.08
2022-09-22T18:33:03.123Z,11.05
2022-09-22T18:35:35.042Z,11.04
2022-09-22T18:38:06.941Z,11.04
2022-09-22T18:40:38.914Z,11.02
2022-09-22T18:43:11.110Z,11.00
2022-09-22T18:45:43.609Z,10.98
2022-09-22T18:48:17.411Z,10.98
2022-09-22T18:50:50.173Z,10.96
2022-09-22T18:53:22.781Z,10.96
2022-09-22T18:55:55.311Z,10.95
2022-09-22T18:58:27.246Z,10.93
2022-09-22T19:00:59.782Z,10.92
2022-09-22T19:03:31.840Z,10.91
2022-09-22T19:06:03.718Z,10.90
2022-09-22T19:08:35.806Z,10.91
2022-09-22T19:11:07.794Z,10.90
2022-09-22T19:13:39.593Z,10.91
2022-09-22T19:16:13.195Z,10.89
2022-09-22T19:18:45.145Z,10.87
2022-09-22T19:21:16.990Z,10.87
2022-09-22T19:23:49.253Z,10.85
2022-09-22T19:26:23.327Z,10.84
2022-09-22T19:28:55.240Z,10.83
2022-09-22T19:31:27.345Z,10.81
2022-09-22T19:33:59.336Z,10.80
2022-09-22T19:36:31.230Z,10.78
2022-09-22T19:39:03.286Z,10.76
2022-09-22T19:41:36.350Z,10.74
2022-09-22T19:44:09.523Z,10.71
2022-09-22T19:46:42.818Z,10.68
2022-09-22T19:49:15.806Z,10.64
2022-09-22T19:51:47.682Z,10.61
2022-09-22T19:54:20.834Z,10.58
2022-09-22T19:56:52.686Z,10.54
2022-09-22T19:59:24.540Z,10.50
2022-09-22T20:01:56.467Z,10.46
2022-09-22T20:04:28.369Z,10.42
2022-09-22T20:07:00.178Z,10.38
2022-09-22T20:09:32.040Z,10.35
2022-09-22T20:13:26.544Z,10.31
2022-09-22T20:15:58.721Z,10.25
2022-09-22T20:18:31.216Z,10.18
2022-09-22T20:21:04.920Z,10.18
2022-09-22T20:23:37.250Z,10.15
2022-09-22T20:26:12.090Z,10.11
2022-09-22T20:28:44.369Z,10.08
2022-09-22T20:31:16.776Z,10.06
2022-09-22T20:33:48.984Z,10.04
2022-09-22T20:36:20.858Z,10.02
2022-09-22T20:38:53.480Z,10.00
2022-09-22T20:41:25.911Z,9.97
2022-09-22T20:43:58.574Z,9.95
2022-09-22T20:46:30.399Z,9.92
2022-09-22T20:49:04.217Z,9.89
2022-09-22T20:51:37.083Z,9.87
2022-09-22T20:54:09.456Z,9.83
2022-09-22T20:56:42.984Z,9.81
2022-09-22T20:59:15.488Z,9.79
2022-09-22T21:01:47.503Z,9.77
2022-09-22T21:04:19.485Z,9.75
2022-09-22T21:06:51.524Z,9.72
2022-09-22T21:09:41.070Z,9.68
2022-09-22T21:12:13.853Z,9.63
2022-09-22T21:14:46.226Z,9.59
2022-09-22T21:17:18.143Z,9.55
2022-09-22T21:19:50.030Z,9.51
2022-09-22T21:22:21.941Z,9.44
2022-09-22T21:24:54.047Z,9.39
2022-09-22T21:27:26.245Z,9.36
2022-09-22T21:29:58.020Z,9.33
2022-09-22T21:32:31.368Z,9.29
2022-09-22T21:35:03.197Z,9.26
2022-09-22T21:37:36.163Z,9.22
2022-09-22T21:40:10.191Z,9.18
2022-09-22T21:42:42.094Z,9.13
2022-09-22T21:45:14.229Z,9.09
2022-09-22T21:47:45.956Z,9.05
2022-09-22T21:50:17.810Z,8.99
2022-09-22T21:52:49.698Z,8.94
2022-09-22T21:55:21.844Z,8.90
2022-09-22T21:57:56.453Z,8.85
2022-09-22T22:00:50.672Z,8.80
2022-09-22T22:03:32.325Z,8.73
2022-09-22T22:06:10.519Z,8.73
2022-09-22T22:08:47.017Z,8.71
2022-09-22T22:11:22.260Z,8.67
2022-09-22T22:13:55.987Z,8.64
2022-09-22T22:16:31.419Z,8.62
2022-09-22T22:19:03.261Z,8.58
2022-09-22T22:21:35.447Z,8.53
2022-09-22T22:24:28.773Z,8.50
2022-09-22T22:27:05.798Z,8.47
2022-09-22T22:29:39.621Z,8.43
2022-09-22T22:32:12.195Z,8.39
2022-09-22T22:34:43.954Z,8.37
2022-09-22T22:37:16.934Z,8.34
2022-09-22T22:39:49.280Z,8.31
2022-09-22T22:42:21.498Z,8.28
2022-09-22T22:44:53.321Z,8.24
2022-09-22T22:47:25.708Z,8.22
2022-09-22T22:49:57.551Z,8.17
2022-09-22T22:52:29.328Z,8.15
2022-09-22T22:55:01.192Z,8.13
2022-09-22T22:57:33.045Z,8.11
2022-09-22T23:00:05.846Z,8.07
2022-09-22T23:02:38.763Z,8.03
2022-09-22T23:05:12.291Z,8.00
2022-09-22T23:07:44.419Z,7.97
2022-09-22T23:10:16.315Z,7.94
2022-09-22T23:12:48.780Z,7.91
2022-09-22T23:15:21.596Z,7.88
2022-09-22T23:17:53.536Z,7.85
2022-09-22T23:20:25.938Z,7.82
2022-09-22T23:22:58.166Z,7.79
2022-09-22T23:25:30.117Z,7.76
2022-09-22T23:28:04.839Z,7.72
2022-09-22T23:30:37.331Z,7.71
2022-09-22T23:33:11.346Z,7.68
2022-09-22T23:35:43.069Z,7.66
2022-09-22T23:38:17.444Z,7.63
2022-09-22T23:40:49.557Z,7.59
2022-09-22T23:43:21.559Z,7.55
2022-09-22T23:45:54.935Z,7.53
2022-09-22T23:48:29.312Z,7.50
2022-09-22T23:51:01.832Z,7.48
2022-09-22T23:53:36.053Z,7.46
2022-09-22T23:56:09.437Z,7.42
2022-09-22T23:58:42.327Z,7.38
